createdAt,value
2019-05-20T00:00:09.665Z,3.80
2019-05-20T00:02:39.064Z,4.13
2019-05-20T00:05:08.415Z,4.00
2019-05-20T00:07:37.639Z,4.30
2019-05-20T00:10:09.943Z,3.80
2019-05-20T00:12:39.219Z,4.03
2019-05-20T00:15:08.890Z,4.27
2019-05-20T00:17:38.091Z,4.37
2019-05-20T00:20:07.624Z,4.10
2019-05-20T00:22:36.831Z,3.93
2019-05-20T00:25:07.499Z,4.00
2019-05-20T00:27:36.873Z,4.53
2019-05-20T00:30:08.503Z,4.53
2019-05-20T00:32:42.351Z,3.53
2019-05-20T00:35:08.647Z,3.93
2019-05-20T00:37:39.059Z,4.03
2019-05-20T00:40:08.998Z,4.10
2019-05-20T00:42:38.203Z,4.40
2019-05-20T00:45:07.875Z,4.43
2019-05-20T00:47:37.080Z,3.80
2019-05-20T00:50:06.950Z,4.30
2019-05-20T00:52:36.416Z,4.30
2019-05-20T00:55:10.099Z,4.47
2019-05-20T00:57:39.337Z,4.20
2019-05-20T01:00:08.699Z,4.67
2019-05-20T01:02:37.959Z,4.53
2019-05-20T01:05:07.199Z,4.93
2019-05-20T01:07:36.415Z,4.80
2019-05-20T01:10:06.513Z,4.80
2019-05-20T01:12:35.722Z,4.77
2019-05-20T01:15:05.883Z,4.97
2019-05-20T01:17:35.250Z,4.90
2019-05-20T01:20:05.914Z,5.20
2019-05-20T01:22:35.111Z,5.30
2019-05-20T01:25:07.756Z,5.00
2019-05-20T01:27:36.951Z,5.13
2019-05-20T01:30:08.888Z,4.90
2019-05-20T01:32:38.096Z,5.23
2019-05-20T01:35:07.555Z,5.60
2019-05-20T01:37:36.750Z,5.63
2019-05-20T01:40:06.150Z,5.47
2019-05-20T01:42:35.435Z,5.70
2019-05-20T01:45:06.098Z,5.53
2019-05-20T01:47:35.323Z,5.60
2019-05-20T01:50:06.788Z,6.20
2019-05-20T01:52:36.074Z,5.50
2019-05-20T01:55:06.936Z,6.80
2019-05-20T01:57:36.436Z,6.87
2019-05-20T02:00:08.875Z,6.43
2019-05-20T02:02:38.107Z,7.43
2019-05-20T02:05:07.642Z,7.70
2019-05-20T02:07:36.958Z,7.60
2019-05-20T02:10:07.067Z,7.50
2019-05-20T02:12:36.292Z,7.10
2019-05-20T02:15:10.435Z,7.63
2019-05-20T02:17:39.666Z,7.33
2019-05-20T02:20:09.135Z,7.67
2019-05-20T02:22:38.771Z,8.33
2019-05-20T02:25:08.263Z,8.83
2019-05-20T02:27:37.555Z,8.83
2019-05-20T02:30:09.028Z,10.80
2019-05-20T02:32:38.313Z,9.30
2019-05-20T02:35:07.902Z,10.70
2019-05-20T02:37:37.276Z,9.67
2019-05-20T02:40:08.331Z,9.97
2019-05-20T02:42:37.580Z,9.20
2019-05-20T02:45:07.417Z,10.20
2019-05-20T02:47:36.652Z,10.43
2019-05-20T02:50:06.410Z,11.90
2019-05-20T02:52:35.616Z,11.03
2019-05-20T02:55:07.112Z,11.40
2019-05-20T02:57:36.325Z,11.83
2019-05-20T03:00:08.889Z,11.30
2019-05-20T03:02:38.121Z,11.73
2019-05-20T03:05:08.660Z,12.40
2019-05-20T03:07:37.869Z,13.33
2019-05-20T03:10:07.323Z,12.10
2019-05-20T03:12:36.567Z,13.10
2019-05-20T03:15:06.528Z,16.07
2019-05-20T03:17:35.775Z,14.83
2019-05-20T03:20:06.225Z,15.50
2019-05-20T03:22:35.525Z,17.20
2019-05-20T03:25:08.197Z,16.33
2019-05-20T03:27:37.513Z,18.30
2019-05-20T03:30:07.879Z,17.97
2019-05-20T03:32:37.213Z,17.60
2019-05-20T03:35:07.369Z,17.70
2019-05-20T03:37:36.611Z,19.00
2019-05-20T03:40:07.917Z,19.87
2019-05-20T03:42:37.128Z,19.17
2019-05-20T03:45:07.531Z,20.17
2019-05-20T03:47:36.801Z,21.43
2019-05-20T03:50:07.848Z,22.30
2019-05-20T03:52:37.402Z,21.70
2019-05-20T03:55:08.538Z,24.03
2019-05-20T03:57:37.772Z,25.63
2019-05-20T04:00:07.698Z,25.33
2019-05-20T04:02:36.924Z,26.67
2019-05-20T04:05:06.313Z,25.77
2019-05-20T04:07:35.540Z,27.67
2019-05-20T04:10:06.233Z,26.57
2019-05-20T04:12:35.519Z,25.93
2019-05-20T04:15:06.377Z,27.97
2019-05-20T04:17:35.579Z,31.70
2019-05-20T04:20:06.857Z,27.00
2019-05-20T04:22:36.076Z,29.70
2019-05-20T04:25:06.451Z,29.17
2019-05-20T04:27:35.654Z,27.00
2019-05-20T04:30:06.751Z,26.07
2019-05-20T04:32:36.385Z,27.20
2019-05-20T04:35:21.266Z,27.43
2019-05-20T04:37:37.152Z,27.33
2019-05-20T04:40:06.665Z,28.40
2019-05-20T04:42:36.129Z,27.67
2019-05-20T04:45:06.602Z,28.53
2019-05-20T04:47:35.819Z,28.20
2019-05-20T04:50:08.592Z,30.07
2019-05-20T04:52:37.853Z,29.00
2019-05-20T04:55:07.536Z,28.80
2019-05-20T04:57:36.741Z,31.07
2019-05-20T05:00:10.373Z,29.93
2019-05-20T05:02:43.435Z,30.33
2019-05-20T05:05:11.780Z,31.90
2019-05-20T05:07:41.081Z,30.47
2019-05-20T05:10:10.782Z,31.07
2019-05-20T05:12:40.016Z,30.00
2019-05-20T05:15:09.719Z,30.97
2019-05-20T05:17:39.256Z,30.87
2019-05-20T05:20:17.681Z,32.63
2019-05-20T05:22:39.770Z,33.53
2019-05-20T05:25:09.262Z,34.87
2019-05-20T05:27:38.470Z,33.17
2019-05-20T05:30:08.251Z,33.27
2019-05-20T05:32:44.335Z,36.93
2019-05-20T05:35:15.535Z,35.20
2019-05-20T05:37:44.817Z,34.40
2019-05-20T05:40:14.905Z,34.60
2019-05-20T05:42:44.124Z,35.57
2019-05-20T05:45:13.522Z,37.30
2019-05-20T05:47:42.790Z,36.73
2019-05-20T05:50:12.208Z,33.77
2019-05-20T05:52:41.438Z,37.20
2019-05-20T05:55:11.038Z,36.90
2019-05-20T05:57:40.272Z,35.60
2019-05-20T06:00:10.271Z,39.87
2019-05-20T06:02:39.520Z,38.53
2019-05-20T06:05:10.068Z,39.50
2019-05-20T06:07:39.274Z,40.10
2019-05-20T06:10:09.246Z,43.37
2019-05-20T06:12:41.440Z,37.50
2019-05-20T06:15:11.513Z,37.40
2019-05-20T06:17:40.982Z,42.70
2019-05-20T06:20:10.879Z,40.00
2019-05-20T06:22:40.156Z,40.40
2019-05-20T06:25:09.807Z,42.17
2019-05-20T06:27:39.109Z,43.40
2019-05-20T06:30:11.518Z,38.83
2019-05-20T06:32:41.469Z,41.60
2019-05-20T06:35:12.285Z,39.00
2019-05-20T06:37:43.163Z,37.90
2019-05-20T06:40:12.727Z,37.00
2019-05-20T06:42:41.939Z,37.67
2019-05-20T06:45:12.357Z,35.10
2019-05-20T06:47:41.577Z,36.43
2019-05-20T06:50:11.024Z,37.30
2019-05-20T06:52:40.287Z,36.17
2019-05-20T06:55:09.642Z,35.17
2019-05-20T06:57:38.938Z,34.80
2019-05-20T07:00:09.269Z,35.07
2019-05-20T07:02:38.564Z,33.73
2019-05-20T07:05:08.135Z,37.70
2019-05-20T07:07:37.387Z,34.97
2019-05-20T07:10:09.679Z,37.63
2019-05-20T07:12:41.470Z,39.13
2019-05-20T07:15:10.520Z,40.70
2019-05-20T07:17:39.952Z,45.07
2019-05-20T07:20:09.327Z,40.70
2019-05-20T07:22:54.680Z,38.53
2019-05-20T07:25:09.581Z,38.33
2019-05-20T07:27:38.885Z,37.83
2019-05-20T07:30:08.447Z,34.03
2019-05-20T07:32:37.675Z,31.40
2019-05-20T07:35:07.811Z,32.80
2019-05-20T07:37:37.057Z,30.80
2019-05-20T07:40:06.789Z,34.63
2019-05-20T07:42:36.476Z,31.13
2019-05-20T07:45:08.820Z,33.07
2019-05-20T07:47:38.627Z,30.00
2019-05-20T07:50:09.139Z,35.73
2019-05-20T07:52:38.454Z,29.90
2019-05-20T07:55:08.029Z,31.10
2019-05-20T07:57:39.290Z,30.63
2019-05-20T08:00:09.493Z,33.70
2019-05-20T08:02:39.190Z,30.33
2019-05-20T08:05:08.597Z,30.57
2019-05-20T08:07:51.512Z,31.63
2019-05-20T08:10:09.124Z,29.30
2019-05-20T08:12:38.353Z,32.30
2019-05-20T08:15:08.424Z,28.40
2019-05-20T08:17:37.777Z,32.53
2019-05-20T08:20:07.451Z,28.47
2019-05-20T08:22:36.657Z,23.97
2019-05-20T08:25:07.151Z,27.80
2019-05-20T08:27:36.451Z,26.30
2019-05-20T08:30:13.681Z,27.80
2019-05-20T08:32:40.663Z,25.40
2019-05-20T08:35:10.945Z,25.63
2019-05-20T08:37:45.305Z,24.93
2019-05-20T08:40:11.301Z,25.33
2019-05-20T08:42:40.499Z,26.13
2019-05-20T08:45:10.011Z,22.83
2019-05-20T08:47:39.221Z,22.80
2019-05-20T08:50:14.078Z,22.83
2019-05-20T08:52:40.143Z,24.47
2019-05-20T08:55:09.615Z,24.03
2019-05-20T08:57:38.832Z,26.70
2019-05-20T09:00:09.680Z,23.00
2019-05-20T09:02:38.950Z,23.57
2019-05-20T09:05:08.729Z,24.40
2019-05-20T09:07:38.028Z,26.20
2019-05-20T09:10:07.483Z,23.47
2019-05-20T09:12:36.752Z,25.70
2019-05-20T09:15:07.379Z,24.70
2019-05-20T09:17:39.086Z,24.93
2019-05-20T09:20:09.940Z,24.93
2019-05-20T09:22:39.163Z,24.00
2019-05-20T09:25:08.901Z,23.97
2019-05-20T09:27:38.540Z,24.03
2019-05-20T09:30:08.716Z,25.40
2019-05-20T09:32:42.642Z,25.07
2019-05-20T09:35:11.043Z,25.27
2019-05-20T09:37:40.360Z,23.10
2019-05-20T09:40:11.672Z,24.53
2019-05-20T09:42:41.437Z,24.90
2019-05-20T09:45:10.964Z,25.10
2019-05-20T09:47:40.251Z,24.83
2019-05-20T09:50:09.623Z,23.17
2019-05-20T09:52:38.988Z,22.03
2019-05-20T09:55:08.331Z,23.93
2019-05-20T09:57:37.578Z,23.47
2019-05-20T10:00:07.853Z,22.17
2019-05-20T10:02:38.748Z,24.03
2019-05-20T10:05:08.524Z,21.40
2019-05-20T10:07:37.831Z,21.30
2019-05-20T10:10:10.063Z,22.23
2019-05-20T10:12:45.999Z,22.20
2019-05-20T10:15:10.490Z,21.10
2019-05-20T10:17:39.709Z,19.37
2019-05-20T10:20:10.201Z,19.60
2019-05-20T10:22:39.690Z,19.17
2019-05-20T10:25:09.535Z,19.70
2019-05-20T10:27:38.821Z,19.87
2019-05-20T10:30:09.917Z,17.37
2019-05-20T10:32:39.128Z,18.73
2019-05-20T10:35:08.650Z,16.37
2019-05-20T10:37:37.920Z,15.73
2019-05-20T10:40:07.695Z,15.63
2019-05-20T10:42:36.912Z,14.90
2019-05-20T10:45:06.327Z,14.33
2019-05-20T10:47:35.577Z,14.67
2019-05-20T10:50:07.182Z,12.97
2019-05-20T10:52:36.406Z,14.07
2019-05-20T10:55:07.365Z,13.50
2019-05-20T10:57:36.636Z,13.17
2019-05-20T11:00:07.211Z,14.07
2019-05-20T11:02:36.430Z,12.93
2019-05-20T11:05:07.107Z,12.13
2019-05-20T11:07:36.405Z,12.70
2019-05-20T11:10:07.460Z,13.37
2019-05-20T11:12:36.879Z,15.37
2019-05-20T11:15:07.595Z,17.63
2019-05-20T11:17:36.868Z,19.77
2019-05-20T11:20:08.347Z,20.37
2019-05-20T11:22:38.592Z,20.90
2019-05-20T11:25:07.980Z,22.80
2019-05-20T11:27:37.207Z,24.70
2019-05-20T11:30:10.152Z,22.47
2019-05-20T11:32:39.799Z,22.27
2019-05-20T11:35:09.578Z,21.50
2019-05-20T11:37:39.052Z,24.93
2019-05-20T11:40:10.963Z,24.57
2019-05-20T11:42:41.039Z,25.53
2019-05-20T11:45:11.988Z,23.47
2019-05-20T11:47:41.227Z,24.30
2019-05-20T11:50:10.978Z,25.23
2019-05-20T11:52:40.216Z,26.73
2019-05-20T11:55:09.662Z,27.30
2019-05-20T11:57:38.906Z,27.00
2019-05-20T12:00:09.423Z,28.63
2019-05-20T12:02:38.697Z,27.23
2019-05-20T12:05:08.542Z,28.47
2019-05-20T12:07:37.778Z,27.37
2019-05-20T12:10:08.337Z,27.93
2019-05-20T12:12:37.640Z,29.23
2019-05-20T12:15:08.648Z,28.33
2019-05-20T12:17:37.960Z,26.73
2019-05-20T12:20:09.266Z,28.33
2019-05-20T12:22:40.082Z,23.17
2019-05-20T12:25:09.732Z,25.57
2019-05-20T12:27:39.280Z,23.93
2019-05-20T12:30:09.259Z,26.03
2019-05-20T12:32:38.572Z,26.80
2019-05-20T12:35:08.125Z,29.00
2019-05-20T12:37:37.377Z,28.00
2019-05-20T12:40:08.421Z,27.77
2019-05-20T12:42:38.043Z,27.67
2019-05-20T12:45:08.015Z,26.63
2019-05-20T12:47:37.412Z,28.30
2019-05-20T12:50:07.384Z,28.87
2019-05-20T12:52:37.552Z,28.57
2019-05-20T12:55:09.902Z,30.10
2019-05-20T12:57:38.823Z,29.30
2019-05-20T13:00:13.258Z,32.30
2019-05-20T13:02:42.842Z,32.47
2019-05-20T13:05:12.529Z,32.10
2019-05-20T13:07:41.741Z,32.80
2019-05-20T13:10:27.890Z,33.07
2019-05-20T13:12:42.790Z,33.10
2019-05-20T13:15:13.800Z,32.97
2019-05-20T13:17:45.099Z,35.27
2019-05-20T13:20:14.237Z,34.77
2019-05-20T13:22:43.488Z,37.80
2019-05-20T13:25:13.772Z,35.17
2019-05-20T13:27:43.000Z,37.37
2019-05-20T13:30:12.385Z,36.37
2019-05-20T13:32:41.634Z,36.13
2019-05-20T13:35:11.477Z,35.17
2019-05-20T13:37:40.721Z,35.33
2019-05-20T13:40:10.266Z,35.33
2019-05-20T13:42:39.500Z,39.07
2019-05-20T13:45:09.279Z,38.33
2019-05-20T13:47:38.520Z,38.43
2019-05-20T13:50:09.925Z,37.50
2019-05-20T13:52:39.148Z,40.67
2019-05-20T13:55:09.058Z,38.53
2019-05-20T13:57:38.531Z,38.10
2019-05-20T14:00:08.515Z,40.77
2019-05-20T14:02:37.865Z,39.00
2019-05-20T14:05:07.436Z,38.47
2019-05-20T14:07:36.670Z,38.10
2019-05-20T14:10:07.417Z,37.47
2019-05-20T14:12:36.735Z,35.50
2019-05-20T14:15:06.676Z,37.80
2019-05-20T14:17:35.914Z,36.93
2019-05-20T14:20:06.392Z,35.30
2019-05-20T14:22:35.671Z,35.80
2019-05-20T14:25:07.342Z,36.23
2019-05-20T14:27:36.569Z,40.37
2019-05-20T14:30:08.818Z,37.90
2019-05-20T14:32:38.051Z,38.33
2019-05-20T14:35:08.595Z,39.07
2019-05-20T14:37:37.895Z,38.83
2019-05-20T14:40:08.440Z,40.87
2019-05-20T14:42:37.739Z,37.87
2019-05-20T14:45:07.995Z,33.67
2019-05-20T14:47:37.256Z,34.37
2019-05-20T14:50:09.890Z,35.13
2019-05-20T14:52:39.135Z,35.33
2019-05-20T14:55:10.105Z,38.30
2019-05-20T14:57:39.323Z,36.50
2019-05-20T15:00:09.184Z,33.17
2019-05-20T15:02:38.497Z,36.77
2019-05-20T15:05:08.370Z,33.23
2019-05-20T15:07:37.611Z,34.93
2019-05-20T15:10:10.414Z,35.63
2019-05-20T15:12:39.648Z,38.67
2019-05-20T15:15:09.237Z,35.20
2019-05-20T15:17:38.447Z,37.50
2019-05-20T15:20:09.319Z,39.97
2019-05-20T15:22:38.541Z,36.57
2019-05-20T15:25:08.511Z,38.03
2019-05-20T15:27:37.732Z,39.70
2019-05-20T15:30:08.499Z,41.47
2019-05-20T15:32:37.751Z,40.07
2019-05-20T15:35:07.729Z,41.47
2019-05-20T15:37:36.962Z,43.07
2019-05-20T15:40:06.459Z,43.33
2019-05-20T15:42:35.881Z,45.10
2019-05-20T15:45:09.991Z,42.47
2019-05-20T15:47:39.311Z,40.63
2019-05-20T15:50:10.388Z,47.43
2019-05-20T15:52:40.246Z,43.77
2019-05-20T15:55:09.591Z,42.17
2019-05-20T15:57:38.800Z,47.23
2019-05-20T16:00:08.865Z,43.17
2019-05-20T16:02:38.081Z,45.00
2019-05-20T16:05:08.140Z,45.37
2019-05-20T16:07:38.317Z,45.30
2019-05-20T16:10:07.778Z,47.80
2019-05-20T16:12:36.996Z,41.50
2019-05-20T16:15:07.518Z,44.97
2019-05-20T16:17:36.749Z,41.67
2019-05-20T16:20:07.525Z,41.93
2019-05-20T16:22:36.799Z,44.60
2019-05-20T16:25:07.085Z,44.50
2019-05-20T16:27:37.532Z,47.77
2019-05-20T16:30:11.043Z,41.43
2019-05-20T16:32:40.428Z,41.83
2019-05-20T16:35:09.939Z,43.47
2019-05-20T16:37:40.312Z,42.40
2019-05-20T16:40:10.285Z,43.47
2019-05-20T16:42:39.847Z,45.60
2019-05-20T16:45:11.919Z,43.30
2019-05-20T16:47:41.413Z,42.90
2019-05-20T16:50:11.083Z,42.40
2019-05-20T16:52:40.315Z,46.63
2019-05-20T16:55:09.812Z,46.43
2019-05-20T16:57:39.242Z,44.97
2019-05-20T17:00:29.059Z,44.97
2019-05-20T17:02:41.308Z,45.80
2019-05-20T17:05:10.849Z,44.57
2019-05-20T17:07:40.067Z,42.00
2019-05-20T17:10:10.142Z,43.33
2019-05-20T17:12:39.354Z,43.83
2019-05-20T17:15:09.015Z,39.73
2019-05-20T17:17:38.228Z,38.97
2019-05-20T17:20:08.977Z,41.83
2019-05-20T17:22:39.169Z,38.13
2019-05-20T17:25:08.628Z,39.83
2019-05-20T17:27:37.844Z,41.23
2019-05-20T17:30:07.698Z,39.50
2019-05-20T17:32:37.418Z,39.07
2019-05-20T17:35:06.918Z,38.83
2019-05-20T17:37:36.412Z,38.57
2019-05-20T17:40:07.880Z,39.97
2019-05-20T17:42:37.086Z,36.83
2019-05-20T17:45:07.425Z,38.83
2019-05-20T17:47:36.736Z,40.27
2019-05-20T17:50:07.620Z,38.93
2019-05-20T17:52:36.974Z,41.93
2019-05-20T17:55:07.170Z,39.83
2019-05-20T17:57:36.516Z,37.90
2019-05-20T18:00:09.317Z,39.57
2019-05-20T18:02:38.761Z,37.10
2019-05-20T18:05:08.711Z,41.80
2019-05-20T18:07:38.131Z,39.47
2019-05-20T18:10:08.350Z,41.20
2019-05-20T18:12:37.588Z,39.23
2019-05-20T18:15:07.711Z,40.40
2019-05-20T18:17:36.961Z,39.60
2019-05-20T18:20:06.427Z,40.03
2019-05-20T18:22:35.636Z,40.40
2019-05-20T18:25:06.301Z,38.67
2019-05-20T18:27:35.586Z,38.83
2019-05-20T18:30:08.139Z,38.67
2019-05-20T18:32:38.624Z,39.27
2019-05-20T18:35:09.975Z,41.23
2019-05-20T18:37:39.196Z,39.67
2019-05-20T18:40:13.896Z,38.83
2019-05-20T18:42:39.680Z,37.80
2019-05-20T18:45:09.452Z,38.50
2019-05-20T18:47:38.844Z,38.43
2019-05-20T18:50:09.481Z,38.00
2019-05-20T18:52:38.713Z,38.10
2019-05-20T18:55:09.280Z,38.47
2019-05-20T18:57:38.583Z,38.83
2019-05-20T19:00:09.967Z,37.90
2019-05-20T19:02:40.347Z,38.87
2019-05-20T19:05:16.102Z,36.00
2019-05-20T19:07:45.597Z,35.53
2019-05-20T19:10:15.018Z,38.00
2019-05-20T19:12:44.264Z,38.60
2019-05-20T19:15:14.744Z,35.37
2019-05-20T19:17:44.006Z,37.10
2019-05-20T19:20:13.303Z,35.40
2019-05-20T19:22:42.524Z,35.33
2019-05-20T19:25:11.760Z,35.33
2019-05-20T19:27:41.055Z,36.50
2019-05-20T19:30:10.551Z,34.43
2019-05-20T19:32:39.762Z,35.20
2019-05-20T19:35:09.344Z,37.63
2019-05-20T19:37:39.739Z,36.70
2019-05-20T19:40:09.346Z,36.83
2019-05-20T19:42:40.321Z,37.13
2019-05-20T19:45:09.938Z,37.43
2019-05-20T19:47:39.242Z,36.60
2019-05-20T19:50:09.151Z,36.80
2019-05-20T19:52:39.454Z,38.87
2019-05-20T19:55:10.380Z,36.60
2019-05-20T19:57:39.645Z,36.93
2019-05-20T20:00:10.999Z,36.17
2019-05-20T20:02:40.286Z,41.23
2019-05-20T20:05:10.056Z,37.97
2019-05-20T20:07:39.300Z,38.50
2019-05-20T20:10:08.661Z,38.67
2019-05-20T20:12:37.944Z,39.93
2019-05-20T20:15:16.081Z,40.00
2019-05-20T20:17:45.519Z,42.97
2019-05-20T20:20:14.923Z,43.87
2019-05-20T20:22:44.547Z,44.63
2019-05-20T20:25:14.170Z,42.77
2019-05-20T20:27:43.379Z,43.17
2019-05-20T20:30:13.826Z,46.07
2019-05-20T20:32:43.388Z,44.67
2019-05-20T20:35:12.741Z,46.13
2019-05-20T20:37:42.309Z,41.53
2019-05-20T20:40:11.596Z,45.23
2019-05-20T20:42:40.827Z,43.67
2019-05-20T20:45:10.374Z,45.57
2019-05-20T20:47:42.198Z,41.97
2019-05-20T20:50:10.952Z,42.30
2019-05-20T20:52:40.351Z,40.37
2019-05-20T20:55:09.805Z,45.13
2019-05-20T20:57:39.036Z,42.87
2019-05-20T21:00:10.129Z,46.67
2019-05-20T21:02:52.206Z,46.60
2019-05-20T21:05:10.672Z,43.97
2019-05-20T21:07:40.246Z,45.50
2019-05-20T21:10:09.626Z,46.70
2019-05-20T21:12:38.849Z,47.47
2019-05-20T21:15:09.019Z,45.63
2019-05-20T21:17:38.507Z,46.20
2019-05-20T21:20:07.727Z,46.83
2019-05-20T21:22:36.974Z,46.60
2019-05-20T21:25:07.018Z,49.43
2019-05-20T21:27:37.231Z,44.93
2019-05-20T21:30:07.745Z,47.70
2019-05-20T21:32:37.364Z,47.33
2019-05-20T21:35:06.563Z,45.00
2019-05-20T21:37:35.802Z,46.50
2019-05-20T21:40:05.382Z,47.47
2019-05-20T21:42:34.615Z,47.90
2019-05-20T21:45:06.168Z,46.13
2019-05-20T21:47:35.653Z,45.13
2019-05-20T21:50:05.919Z,42.87
2019-05-20T21:52:35.156Z,44.70
2019-05-20T21:55:06.819Z,46.13
2019-05-20T21:57:36.023Z,45.60
2019-05-20T22:00:07.867Z,45.50
2019-05-20T22:02:38.724Z,46.60
2019-05-20T22:05:08.572Z,47.23
2019-05-20T22:07:37.909Z,47.00
2019-05-20T22:10:07.591Z,44.40
2019-05-20T22:12:36.818Z,46.77
2019-05-20T22:15:06.725Z,45.70
2019-05-20T22:17:35.962Z,43.87
2019-05-20T22:20:06.122Z,46.30
2019-05-20T22:22:36.995Z,46.73
2019-05-20T22:25:06.227Z,45.60
2019-05-20T22:27:35.459Z,45.57
2019-05-20T22:30:07.121Z,45.80
2019-05-20T22:32:36.354Z,44.83
2019-05-20T22:35:08.434Z,46.17
2019-05-20T22:37:37.661Z,47.23
2019-05-20T22:40:07.226Z,44.97
2019-05-20T22:42:37.541Z,48.37
2019-05-20T22:45:06.916Z,47.80
2019-05-20T22:47:36.148Z,44.33
2019-05-20T22:50:05.915Z,47.57
2019-05-20T22:52:35.131Z,48.07
2019-05-20T22:55:05.967Z,48.53
2019-05-20T22:57:35.213Z,47.70
2019-05-20T23:00:05.501Z,46.23
2019-05-20T23:02:36.358Z,46.37
2019-05-20T23:05:05.731Z,46.43
2019-05-20T23:07:34.967Z,43.77
2019-05-20T23:10:06.716Z,47.80
2019-05-20T23:12:35.942Z,50.20
2019-05-20T23:15:06.494Z,46.90
2019-05-20T23:17:35.728Z,47.20
2019-05-20T23:20:08.598Z,47.17
2019-05-20T23:22:37.837Z,44.60
2019-05-20T23:25:08.682Z,44.97
2019-05-20T23:27:37.980Z,42.33
2019-05-20T23:30:07.785Z,43.30
2019-05-20T23:32:37.005Z,41.50
2019-05-20T23:35:07.751Z,41.90
2019-05-20T23:37:38.058Z,44.03
2019-05-20T23:40:07.259Z,38.90
2019-05-20T23:42:36.508Z,42.30
2019-05-20T23:45:09.969Z,40.20
2019-05-20T23:47:39.187Z,40.93
2019-05-20T23:50:08.680Z,39.67
2019-05-20T23:52:37.892Z,39.53
2019-05-20T23:55:08.273Z,37.83
2019-05-20T23:57:37.503Z,38.00
